sensor_id;sensor_type;location;lat;lon;timestamp;pressure;altitude;pressure_sealevel;temperature;humidity
52105;BME280;38103;42.776;23.112;2023-02-04T00:01:58;93770.09;;;-0.20;100.00
52105;BME280;38103;42.776;23.112;2023-02-04T00:04:24;93761.56;;;-0.29;100.00
52105;BME280;38103;42.776;23.112;2023-02-04T00:06:49;93744.91;;;-0.43;100.00
52105;BME280;38103;42.776;23.112;2023-02-04T00:09:15;93765.63;;;-0.26;100.00
52105;BME280;38103;42.776;23.112;2023-02-04T00:11:43;93762.03;;;-0.25;100.00
52105;BME280;38103;42.776;23.112;2023-02-04T00:14:09;93760.41;;;-0.26;100.00
52105;BME280;38103;42.776;23.112;2023-02-04T00:16:35;93760.28;;;-0.33;100.00
52105;BME280;38103;42.776;23.112;2023-02-04T00:19:00;93762.34;;;-0.28;100.00
52105;BME280;38103;42.776;23.112;2023-02-04T00:21:25;93762.53;;;-0.30;100.00
52105;BME280;38103;42.776;23.112;2023-02-04T00:23:51;93760.78;;;-0.38;100.00
52105;BME280;38103;42.776;23.112;2023-02-04T00:26:16;93756.22;;;-0.36;100.00
52105;BME280;38103;42.776;23.112;2023-02-04T00:28:42;93755.25;;;-0.35;100.00
52105;BME280;38103;42.776;23.112;2023-02-04T00:31:07;93748.28;;;-0.34;100.00
52105;BME280;38103;42.776;23.112;2023-02-04T00:33:33;93743.94;;;-0.42;100.00
52105;BME280;38103;42.776;23.112;2023-02-04T00:35:58;93748.44;;;-0.36;100.00
52105;BME280;38103;42.776;23.112;2023-02-04T00:38:23;93749.44;;;-0.37;100.00
52105;BME280;38103;42.776;23.112;2023-02-04T00:40:49;93736.78;;;-0.40;100.00
52105;BME280;38103;42.776;23.112;2023-02-04T00:43:14;93737.31;;;-0.44;100.00
52105;BME280;38103;42.776;23.112;2023-02-04T00:45:40;93741.97;;;-0.40;100.00
52105;BME280;38103;42.776;23.112;2023-02-04T00:48:05;93686.44;;;-0.62;100.00
52105;BME280;38103;42.776;23.112;2023-02-04T00:50:30;93724.38;;;-0.29;100.00
52105;BME280;38103;42.776;23.112;2023-02-04T00:52:56;93725.97;;;-0.28;100.00
52105;BME280;38103;42.776;23.112;2023-02-04T00:55:23;93720.78;;;-0.28;100.00
52105;BME280;38103;42.776;23.112;2023-02-04T00:57:48;93723.34;;;-0.20;100.00
52105;BME280;38103;42.776;23.112;2023-02-04T01:00:16;93718.47;;;-0.23;100.00
52105;BME280;38103;42.776;23.112;2023-02-04T01:02:42;93712.03;;;-0.27;100.00
52105;BME280;38103;42.776;23.112;2023-02-04T01:05:08;93706.16;;;-0.21;100.00
52105;BME280;38103;42.776;23.112;2023-02-04T01:07:34;93709.19;;;-0.17;100.00
52105;BME280;38103;42.776;23.112;2023-02-04T01:10:00;93702.22;;;-0.17;100.00
52105;BME280;38103;42.776;23.112;2023-02-04T01:12:25;93701.88;;;-0.14;98.65
52105;BME280;38103;42.776;23.112;2023-02-04T01:14:52;93699.56;;;-0.08;98.18
52105;BME280;38103;42.776;23.112;2023-02-04T01:17:18;93687.19;;;-0.06;97.11
52105;BME280;38103;42.776;23.112;2023-02-04T01:19:44;93669.31;;;-0.25;96.28
52105;BME280;38103;42.776;23.112;2023-02-04T01:22:09;93676.31;;;-0.10;95.36
52105;BME280;38103;42.776;23.112;2023-02-04T01:24:35;93673.22;;;-0.05;95.75
52105;BME280;38103;42.776;23.112;2023-02-04T01:27:00;93669.63;;;-0.04;95.27
52105;BME280;38103;42.776;23.112;2023-02-04T01:29:25;93649.44;;;-0.17;95.59
52105;BME280;38103;42.776;23.112;2023-02-04T01:31:51;93664.00;;;-0.08;95.57
52105;BME280;38103;42.776;23.112;2023-02-04T01:34:16;93667.66;;;-0.02;96.31
52105;BME280;38103;42.776;23.112;2023-02-04T01:36:41;93660.25;;;0.10;95.73
52105;BME280;38103;42.776;23.112;2023-02-04T01:39:07;93656.66;;;0.11;95.36
52105;BME280;38103;42.776;23.112;2023-02-04T01:41:32;93652.97;;;0.05;96.10
52105;BME280;38103;42.776;23.112;2023-02-04T01:43:58;93646.53;;;0.01;96.98
52105;BME280;38103;42.776;23.112;2023-02-04T01:46:23;93641.88;;;0.12;97.01
52105;BME280;38103;42.776;23.112;2023-02-04T01:48:49;93639.56;;;0.17;96.86
52105;BME280;38103;42.776;23.112;2023-02-04T01:51:16;93637.56;;;0.19;96.74
52105;BME280;38103;42.776;23.112;2023-02-04T01:53:44;93623.41;;;0.21;96.56
52105;BME280;38103;42.776;23.112;2023-02-04T01:56:23;93626.13;;;0.28;96.50
52105;BME280;38103;42.776;23.112;2023-02-04T01:58:50;93619.03;;;0.22;96.83
52105;BME280;38103;42.776;23.112;2023-02-04T02:01:55;93619.84;;;0.22;97.55
52105;BME280;38103;42.776;23.112;2023-02-04T02:04:31;93619.31;;;0.27;97.10
52105;BME280;38103;42.776;23.112;2023-02-04T02:07:00;93607.38;;;0.33;96.92
52105;BME280;38103;42.776;23.112;2023-02-04T02:09:28;93600.47;;;0.25;96.91
52105;BME280;38103;42.776;23.112;2023-02-04T02:11:54;93601.38;;;0.32;96.70
52105;BME280;38103;42.776;23.112;2023-02-04T02:14:20;93545.63;;;0.05;97.17
52105;BME280;38103;42.776;23.112;2023-02-04T02:16:45;93595.81;;;0.36;97.44
52105;BME280;38103;42.776;23.112;2023-02-04T02:19:14;93576.59;;;0.37;98.27
52105;BME280;38103;42.776;23.112;2023-02-04T02:21:48;93560.75;;;0.31;99.30
52105;BME280;38103;42.776;23.112;2023-02-04T02:24:23;93550.72;;;0.28;99.79
52105;BME280;38103;42.776;23.112;2023-02-04T02:26:49;93544.63;;;0.06;100.00
52105;BME280;38103;42.776;23.112;2023-02-04T02:29:15;93546.94;;;0.01;100.00
52105;BME280;38103;42.776;23.112;2023-02-04T02:31:41;93529.38;;;-0.13;100.00
52105;BME280;38103;42.776;23.112;2023-02-04T02:34:06;93533.25;;;-0.08;100.00
52105;BME280;38103;42.776;23.112;2023-02-04T02:36:31;93530.56;;;0.00;100.00
52105;BME280;38103;42.776;23.112;2023-02-04T02:38:57;93523.38;;;0.02;100.00
52105;BME280;38103;42.776;23.112;2023-02-04T02:41:24;93509.94;;;-0.17;100.00
52105;BME280;38103;42.776;23.112;2023-02-04T02:43:49;93510.84;;;-0.09;100.00
52105;BME280;38103;42.776;23.112;2023-02-04T02:46:15;93513.25;;;0.07;100.00
52105;BME280;38103;42.776;23.112;2023-02-04T02:48:40;93503.47;;;0.09;100.00
52105;BME280;38103;42.776;23.112;2023-02-04T02:51:05;93494.53;;;-0.03;100.00
52105;BME280;38103;42.776;23.112;2023-02-04T02:53:31;93498.28;;;0.09;100.00
52105;BME280;38103;42.776;23.112;2023-02-04T02:55:56;93509.84;;;0.07;100.00
52105;BME280;38103;42.776;23.112;2023-02-04T02:58:25;93461.38;;;-0.01;100.00
52105;BME280;38103;42.776;23.112;2023-02-04T03:00:52;93490.66;;;0.08;100.00
52105;BME280;38103;42.776;23.112;2023-02-04T03:03:25;93493.91;;;0.10;100.00
52105;BME280;38103;42.776;23.112;2023-02-04T03:05:54;93490.00;;;0.21;100.00
52105;BME280;38103;42.776;23.112;2023-02-04T03:08:22;93497.72;;;0.29;100.00
52105;BME280;38103;42.776;23.112;2023-02-04T03:10:48;93498.25;;;0.40;100.00
52105;BME280;38103;42.776;23.112;2023-02-04T03:13:14;93490.19;;;0.35;99.98
52105;BME280;38103;42.776;23.112;2023-02-04T03:15:41;93481.81;;;0.39;99.27
52105;BME280;38103;42.776;23.112;2023-02-04T03:18:08;93480.03;;;0.40;99.14
52105;BME280;38103;42.776;23.112;2023-02-04T03:20:34;93451.66;;;0.23;98.38
52105;BME280;38103;42.776;23.112;2023-02-04T03:22:59;93480.53;;;0.50;98.43
52105;BME280;38103;42.776;23.112;2023-02-04T03:25:25;93487.53;;;0.50;98.29
52105;BME280;38103;42.776;23.112;2023-02-04T03:27:52;93497.38;;;0.54;98.16
52105;BME280;38103;42.776;23.112;2023-02-04T03:30:22;93486.00;;;0.55;97.63
52105;BME280;38103;42.776;23.112;2023-02-04T03:32:47;93483.41;;;0.55;97.12
52105;BME280;38103;42.776;23.112;2023-02-04T03:35:13;93483.16;;;0.50;97.27
52105;BME280;38103;42.776;23.112;2023-02-04T03:37:38;93469.78;;;0.53;97.43
52105;BME280;38103;42.776;23.112;2023-02-04T03:40:04;93478.00;;;0.57;97.60
52105;BME280;38103;42.776;23.112;2023-02-04T03:42:30;93466.56;;;0.51;97.61
52105;BME280;38103;42.776;23.112;2023-02-04T03:44:55;93470.75;;;0.52;97.65
52105;BME280;38103;42.776;23.112;2023-02-04T03:47:21;93480.09;;;0.47;99.35
52105;BME280;38103;42.776;23.112;2023-02-04T03:49:46;93473.84;;;0.41;100.00
52105;BME280;38103;42.776;23.112;2023-02-04T03:52:11;93466.16;;;0.32;100.00
52105;BME280;38103;42.776;23.112;2023-02-04T03:54:37;93458.81;;;0.21;100.00
52105;BME280;38103;42.776;23.112;2023-02-04T03:57:02;93447.94;;;0.32;100.00
52105;BME280;38103;42.776;23.112;2023-02-04T03:59:27;93447.94;;;0.32;100.00
52105;BME280;38103;42.776;23.112;2023-02-04T04:01:53;93442.38;;;0.36;100.00
52105;BME280;38103;42.776;23.112;2023-02-04T04:04:18;93430.09;;;0.29;100.00
52105;BME280;38103;42.776;23.112;2023-02-04T04:06:44;93434.34;;;0.30;100.00
52105;BME280;38103;42.776;23.112;2023-02-04T04:09:09;93428.78;;;0.33;100.00
52105;BME280;38103;42.776;23.112;2023-02-04T04:11:34;93424.19;;;0.36;100.00
52105;BME280;38103;42.776;23.112;2023-02-04T04:14:00;93424.06;;;0.44;100.00
52105;BME280;38103;42.776;23.112;2023-02-04T04:16:26;93432.25;;;0.41;100.00
52105;BME280;38103;42.776;23.112;2023-02-04T04:18:52;93441.13;;;0.31;100.00
52105;BME280;38103;42.776;23.112;2023-02-04T04:21:17;93442.94;;;0.31;100.00
52105;BME280;38103;42.776;23.112;2023-02-04T04:23:42;93446.84;;;0.42;100.00
52105;BME280;38103;42.776;23.112;2023-02-04T04:26:08;93446.16;;;0.33;100.00
52105;BME280;38103;42.776;23.112;2023-02-04T04:28:33;93455.75;;;0.32;100.00
52105;BME280;38103;42.776;23.112;2023-02-04T04:30:58;93450.03;;;0.22;100.00
52105;BME280;38103;42.776;23.112;2023-02-04T04:33:24;93448.16;;;0.16;100.00
52105;BME280;38103;42.776;23.112;2023-02-04T04:35:49;93446.28;;;0.09;100.00
52105;BME280;38103;42.776;23.112;2023-02-04T04:38:14;93460.28;;;0.08;100.00
52105;BME280;38103;42.776;23.112;2023-02-04T04:40:40;93459.03;;;0.04;100.00
52105;BME280;38103;42.776;23.112;2023-02-04T04:43:05;93461.78;;;0.03;100.00
52105;BME280;38103;42.776;23.112;2023-02-04T04:45:30;93462.19;;;-0.01;100.00
52105;BME280;38103;42.776;23.112;2023-02-04T04:47:56;93463.69;;;-0.06;100.00
52105;BME280;38103;42.776;23.112;2023-02-04T04:50:21;93467.38;;;-0.01;100.00
52105;BME280;38103;42.776;23.112;2023-02-04T04:52:47;93472.75;;;-0.02;100.00
52105;BME280;38103;42.776;23.112;2023-02-04T04:55:12;93453.59;;;-0.16;100.00
52105;BME280;38103;42.776;23.112;2023-02-04T04:57:37;93472.84;;;-0.10;100.00
52105;BME280;38103;42.776;23.112;2023-02-04T05:00:05;93480.00;;;-0.13;100.00
52105;BME280;38103;42.776;23.112;2023-02-04T05:02:31;93481.97;;;-0.15;100.00
52105;BME280;38103;42.776;23.112;2023-02-04T05:04:56;93479.03;;;-0.27;100.00
52105;BME280;38103;42.776;23.112;2023-02-04T05:07:21;93493.09;;;-0.21;100.00
52105;BME280;38103;42.776;23.112;2023-02-04T05:09:47;93502.56;;;-0.28;100.00
52105;BME280;38103;42.776;23.112;2023-02-04T05:12:12;93513.50;;;-0.33;100.00
52105;BME280;38103;42.776;23.112;2023-02-04T05:14:37;93518.97;;;-0.28;100.00
52105;BME280;38103;42.776;23.112;2023-02-04T05:17:03;93526.59;;;-0.26;100.00
52105;BME280;38103;42.776;23.112;2023-02-04T05:19:28;93525.53;;;-0.17;100.00
52105;BME280;38103;42.776;23.112;2023-02-04T05:21:53;93512.72;;;-0.18;100.00
52105;BME280;38103;42.776;23.112;2023-02-04T05:24:19;93528.03;;;-0.08;100.00
52105;BME280;38103;42.776;23.112;2023-02-04T05:26:44;93498.91;;;-0.19;100.00
52105;BME280;38103;42.776;23.112;2023-02-04T05:29:10;93517.72;;;-0.02;100.00
52105;BME280;38103;42.776;23.112;2023-02-04T05:31:35;93514.59;;;0.03;100.00
52105;BME280;38103;42.776;23.112;2023-02-04T05:34:00;93507.94;;;0.16;100.00
52105;BME280;38103;42.776;23.112;2023-02-04T05:36:26;93495.66;;;0.25;100.00
52105;BME280;38103;42.776;23.112;2023-02-04T05:38:51;93496.13;;;0.28;100.00
52105;BME280;38103;42.776;23.112;2023-02-04T05:41:17;93510.34;;;0.32;100.00
52105;BME280;38103;42.776;23.112;2023-02-04T05:43:42;93512.22;;;0.39;100.00
52105;BME280;38103;42.776;23.112;2023-02-04T05:46:07;93521.53;;;0.48;100.00
52105;BME280;38103;42.776;23.112;2023-02-04T05:48:33;93523.13;;;0.49;100.00
52105;BME280;38103;42.776;23.112;2023-02-04T05:50:58;93528.34;;;0.49;100.00
52105;BME280;38103;42.776;23.112;2023-02-04T05:53:24;93530.59;;;0.52;100.00
52105;BME280;38103;42.776;23.112;2023-02-04T05:55:49;93534.72;;;0.62;100.00
52105;BME280;38103;42.776;23.112;2023-02-04T05:58:14;93534.59;;;0.70;100.00
52105;BME280;38103;42.776;23.112;2023-02-04T06:00:40;93508.94;;;0.67;100.00
52105;BME280;38103;42.776;23.112;2023-02-04T06:03:05;93511.34;;;0.69;100.00
52105;BME280;38103;42.776;23.112;2023-02-04T06:05:31;93452.69;;;0.29;100.00
52105;BME280;38103;42.776;23.112;2023-02-04T06:07:56;93480.09;;;0.62;100.00
52105;BME280;38103;42.776;23.112;2023-02-04T06:10:22;93507.97;;;0.90;100.00
52105;BME280;38103;42.776;23.112;2023-02-04T06:12:47;93505.22;;;0.98;100.00
52105;BME280;38103;42.776;23.112;2023-02-04T06:15:13;93514.47;;;1.01;100.00
52105;BME280;38103;42.776;23.112;2023-02-04T06:17:38;93509.72;;;1.05;100.00
52105;BME280;38103;42.776;23.112;2023-02-04T06:20:05;93511.75;;;1.09;100.00
52105;BME280;38103;42.776;23.112;2023-02-04T06:22:30;93511.31;;;1.06;100.00
52105;BME280;38103;42.776;23.112;2023-02-04T06:24:56;93512.56;;;1.10;100.00
52105;BME280;38103;42.776;23.112;2023-02-04T06:27:21;93508.59;;;1.14;100.00
52105;BME280;38103;42.776;23.112;2023-02-04T06:29:50;93509.84;;;1.18;100.00
52105;BME280;38103;42.776;23.112;2023-02-04T06:32:17;93509.94;;;1.32;100.00
52105;BME280;38103;42.776;23.112;2023-02-04T06:34:42;93500.75;;;1.36;100.00
52105;BME280;38103;42.776;23.112;2023-02-04T06:37:08;93504.03;;;1.45;100.00
52105;BME280;38103;42.776;23.112;2023-02-04T06:39:33;93510.66;;;1.48;100.00
52105;BME280;38103;42.776;23.112;2023-02-04T06:41:58;93508.53;;;1.58;100.00
52105;BME280;38103;42.776;23.112;2023-02-04T06:44:24;93507.09;;;1.84;100.00
52105;BME280;38103;42.776;23.112;2023-02-04T06:46:49;93499.78;;;2.01;100.00
52105;BME280;38103;42.776;23.112;2023-02-04T06:49:15;93503.88;;;2.18;100.00
52105;BME280;38103;42.776;23.112;2023-02-04T06:51:40;93499.72;;;2.30;100.00
52105;BME280;38103;42.776;23.112;2023-02-04T06:54:05;93496.94;;;2.32;99.55
52105;BME280;38103;42.776;23.112;2023-02-04T06:56:31;93477.25;;;2.29;98.92
52105;BME280;38103;42.776;23.112;2023-02-04T06:58:56;93493.00;;;2.56;99.08
52105;BME280;38103;42.776;23.112;2023-02-04T07:01:22;93494.25;;;2.81;98.38
52105;BME280;38103;42.776;23.112;2023-02-04T07:03:47;93490.88;;;3.15;96.10
52105;BME280;38103;42.776;23.112;2023-02-04T07:06:12;93490.69;;;3.71;95.43
52105;BME280;38103;42.776;23.112;2023-02-04T07:08:38;93497.44;;;4.12;91.65
52105;BME280;38103;42.776;23.112;2023-02-04T07:11:03;93496.63;;;4.19;90.56
52105;BME280;38103;42.776;23.112;2023-02-04T07:13:28;93483.56;;;4.19;89.07
52105;BME280;38103;42.776;23.112;2023-02-04T07:15:54;93495.97;;;4.37;88.71
52105;BME280;38103;42.776;23.112;2023-02-04T07:18:19;93489.16;;;4.75;88.81
52105;BME280;38103;42.776;23.112;2023-02-04T07:20:45;93490.69;;;4.90;85.13
52105;BME280;38103;42.776;23.112;2023-02-04T07:23:10;93485.56;;;5.09;85.00
52105;BME280;38103;42.776;23.112;2023-02-04T07:25:35;93485.72;;;5.14;84.61
52105;BME280;38103;42.776;23.112;2023-02-04T07:28:03;93474.44;;;5.13;83.13
52105;BME280;38103;42.776;23.112;2023-02-04T07:30:30;93481.13;;;5.35;82.49
52105;BME280;38103;42.776;23.112;2023-02-04T07:32:56;93476.31;;;5.32;82.49
52105;BME280;38103;42.776;23.112;2023-02-04T07:35:21;93477.22;;;5.19;83.49
52105;BME280;38103;42.776;23.112;2023-02-04T07:37:48;93482.50;;;5.12;83.79
52105;BME280;38103;42.776;23.112;2023-02-04T07:40:13;93459.06;;;4.91;84.53
52105;BME280;38103;42.776;23.112;2023-02-04T07:42:39;93480.31;;;4.76;84.45
52105;BME280;38103;42.776;23.112;2023-02-04T07:45:04;93460.28;;;4.50;85.50
52105;BME280;38103;42.776;23.112;2023-02-04T07:47:30;93487.44;;;4.55;86.41
52105;BME280;38103;42.776;23.112;2023-02-04T07:49:55;93486.94;;;4.26;86.04
52105;BME280;38103;42.776;23.112;2023-02-04T07:52:22;93492.00;;;4.28;87.68
52105;BME280;38103;42.776;23.112;2023-02-04T07:54:48;93496.66;;;4.05;88.88
52105;BME280;38103;42.776;23.112;2023-02-04T07:57:13;93493.50;;;3.76;91.11
52105;BME280;38103;42.776;23.112;2023-02-04T07:59:39;93512.03;;;3.67;91.21
52105;BME280;38103;42.776;23.112;2023-02-04T08:02:04;93506.38;;;3.57;91.38
52105;BME280;38103;42.776;23.112;2023-02-04T08:04:29;93508.22;;;3.50;92.03
52105;BME280;38103;42.776;23.112;2023-02-04T08:06:55;93514.44;;;3.49;92.66
52105;BME280;38103;42.776;23.112;2023-02-04T08:09:20;93507.19;;;3.37;93.83
52105;BME280;38103;42.776;23.112;2023-02-04T08:11:45;93505.16;;;3.26;95.11
52105;BME280;38103;42.776;23.112;2023-02-04T08:14:11;93469.78;;;3.03;95.64
52105;BME280;38103;42.776;23.112;2023-02-04T08:16:37;93497.53;;;3.31;95.86
52105;BME280;38103;42.776;23.112;2023-02-04T08:19:02;93499.53;;;3.15;96.35
52105;BME280;38103;42.776;23.112;2023-02-04T08:21:28;93491.09;;;3.20;96.90
52105;BME280;38103;42.776;23.112;2023-02-04T08:23:53;93491.91;;;3.20;96.91
52105;BME280;38103;42.776;23.112;2023-02-04T08:26:18;93492.50;;;3.16;97.12
52105;BME280;38103;42.776;23.112;2023-02-04T08:28:44;93488.06;;;3.03;98.68
52105;BME280;38103;42.776;23.112;2023-02-04T08:31:09;93490.28;;;2.99;99.54
52105;BME280;38103;42.776;23.112;2023-02-04T08:33:36;93489.88;;;2.95;100.00
52105;BME280;38103;42.776;23.112;2023-02-04T08:36:03;93485.03;;;2.85;100.00
52105;BME280;38103;42.776;23.112;2023-02-04T08:38:28;93484.81;;;2.87;100.00
52105;BME280;38103;42.776;23.112;2023-02-04T08:40:54;93482.22;;;2.80;100.00
52105;BME280;38103;42.776;23.112;2023-02-04T08:43:19;93484.81;;;2.87;100.00
52105;BME280;38103;42.776;23.112;2023-02-04T08:45:44;93482.03;;;2.95;100.00
52105;BME280;38103;42.776;23.112;2023-02-04T08:48:10;93481.66;;;2.98;100.00
52105;BME280;38103;42.776;23.112;2023-02-04T08:50:35;93479.84;;;2.99;100.00
52105;BME280;38103;42.776;23.112;2023-02-04T08:53:00;93484.25;;;2.98;100.00
52105;BME280;38103;42.776;23.112;2023-02-04T08:55:26;93481.25;;;3.08;100.00
52105;BME280;38103;42.776;23.112;2023-02-04T08:57:51;93477.03;;;3.00;100.00
52105;BME280;38103;42.776;23.112;2023-02-04T09:00:17;93474.41;;;3.00;100.00
52105;BME280;38103;42.776;23.112;2023-02-04T09:02:42;93471.00;;;3.00;100.00
52105;BME280;38103;42.776;23.112;2023-02-04T09:05:08;93472.78;;;2.93;100.00
52105;BME280;38103;42.776;23.112;2023-02-04T09:07:33;93474.41;;;3.00;100.00
52105;BME280;38103;42.776;23.112;2023-02-04T09:09:58;93479.44;;;2.95;100.00
52105;BME280;38103;42.776;23.112;2023-02-04T09:12:24;93481.03;;;2.96;100.00
52105;BME280;38103;42.776;23.112;2023-02-04T09:14:49;93478.63;;;2.95;100.00
52105;BME280;38103;42.776;23.112;2023-02-04T09:17:14;93483.66;;;2.96;100.00
52105;BME280;38103;42.776;23.112;2023-02-04T09:19:40;93477.81;;;2.94;100.00
52105;BME280;38103;42.776;23.112;2023-02-04T09:22:05;93485.47;;;2.96;100.00
52105;BME280;38103;42.776;23.112;2023-02-04T09:24:31;93488.66;;;2.98;100.00
52105;BME280;38103;42.776;23.112;2023-02-04T09:26:56;93476.63;;;3.04;100.00
52105;BME280;38103;42.776;23.112;2023-02-04T09:29:21;93471.38;;;2.97;100.00
52105;BME280;38103;42.776;23.112;2023-02-04T09:31:47;93479.03;;;2.98;100.00
52105;BME280;38103;42.776;23.112;2023-02-04T09:34:13;93471.00;;;2.93;100.00
52105;BME280;38103;42.776;23.112;2023-02-04T09:36:38;93476.44;;;2.98;100.00
52105;BME280;38103;42.776;23.112;2023-02-04T09:39:05;93468.97;;;2.95;100.00
52105;BME280;38103;42.776;23.112;2023-02-04T09:41:32;93462.56;;;3.05;100.00
52105;BME280;38103;42.776;23.112;2023-02-04T09:43:58;93465.16;;;2.98;100.00
52105;BME280;38103;42.776;23.112;2023-02-04T09:46:25;93460.72;;;2.92;100.00
52105;BME280;38103;42.776;23.112;2023-02-04T09:48:57;93468.16;;;2.88;100.00
52105;BME280;38103;42.776;23.112;2023-02-04T09:51:27;93462.53;;;2.77;100.00
52105;BME280;38103;42.776;23.112;2023-02-04T09:53:59;93448.84;;;2.62;100.00
52105;BME280;38103;42.776;23.112;2023-02-04T09:56:26;93454.66;;;2.57;100.00
52105;BME280;38103;42.776;23.112;2023-02-04T09:58:52;93457.66;;;2.61;100.00
52105;BME280;38103;42.776;23.112;2023-02-04T10:01:19;93410.25;;;2.37;100.00
52105;BME280;38103;42.776;23.112;2023-02-04T10:03:46;93453.25;;;2.61;100.00
52105;BME280;38103;42.776;23.112;2023-02-04T10:06:14;93441.19;;;2.53;100.00
52105;BME280;38103;42.776;23.112;2023-02-04T10:08:41;93444.38;;;2.42;100.00
52105;BME280;38103;42.776;23.112;2023-02-04T10:11:07;93439.34;;;2.33;100.00
52105;BME280;38103;42.776;23.112;2023-02-04T10:13:53;93441.56;;;2.37;100.00
52105;BME280;38103;42.776;23.112;2023-02-04T10:16:25;93431.50;;;2.27;100.00
52105;BME280;38103;42.776;23.112;2023-02-04T10:19:14;93437.28;;;2.22;100.00
52105;BME280;38103;42.776;23.112;2023-02-04T10:21:40;93413.78;;;2.08;100.00
52105;BME280;38103;42.776;23.112;2023-02-04T10:24:21;93424.19;;;2.08;100.00
52105;BME280;38103;42.776;23.112;2023-02-04T10:26:51;93384.38;;;1.79;100.00
52105;BME280;38103;42.776;23.112;2023-02-04T10:29:19;93421.59;;;2.08;100.00
52105;BME280;38103;42.776;23.112;2023-02-04T10:31:47;93424.97;;;2.09;100.00
52105;BME280;38103;42.776;23.112;2023-02-04T10:34:37;93416.56;;;2.07;100.00
52105;BME280;38103;42.776;23.112;2023-02-04T10:37:19;93419.00;;;2.08;100.00
52105;BME280;38103;42.776;23.112;2023-02-04T10:39:44;93425.78;;;2.03;100.00
52105;BME280;38103;42.776;23.112;2023-02-04T10:42:24;93420.94;;;1.99;100.00
52105;BME280;38103;42.776;23.112;2023-02-04T10:44:50;93420.13;;;1.99;100.00
52105;BME280;38103;42.776;23.112;2023-02-04T10:49:57;93410.13;;;1.96;100.00
52105;BME280;38103;42.776;23.112;2023-02-04T10:52:31;93404.91;;;1.96;100.00
52105;BME280;38103;42.776;23.112;2023-02-04T10:54:58;93405.31;;;1.99;100.00
52105;BME280;38103;42.776;23.112;2023-02-04T10:57:29;93402.25;;;1.89;100.00
52105;BME280;38103;42.776;23.112;2023-02-04T10:59:57;93408.50;;;1.95;100.00
52105;BME280;38103;42.776;23.112;2023-02-04T11:04:56;93407.72;;;2.01;100.00
52105;BME280;38103;42.776;23.112;2023-02-04T11:07:22;93408.56;;;2.08;100.00
52105;BME280;38103;42.776;23.112;2023-02-04T11:09:48;93403.34;;;2.08;100.00
52105;BME280;38103;42.776;23.112;2023-02-04T11:12:22;93410.38;;;2.15;100.00
52105;BME280;38103;42.776;23.112;2023-02-04T11:14:57;93400.50;;;2.03;100.00
52105;BME280;38103;42.776;23.112;2023-02-04T11:17:33;93394.25;;;1.91;100.00
52105;BME280;38103;42.776;23.112;2023-02-04T11:19:59;93397.69;;;1.98;100.00
52105;BME280;38103;42.776;23.112;2023-02-04T11:22:44;93406.13;;;2.00;100.00
52105;BME280;38103;42.776;23.112;2023-02-04T11:27:57;93391.22;;;1.94;100.00
52105;BME280;38103;42.776;23.112;2023-02-04T11:30:22;93394.03;;;1.85;100.00
52105;BME280;38103;42.776;23.112;2023-02-04T11:33:03;93398.66;;;1.97;100.00
52105;BME280;38103;42.776;23.112;2023-02-04T11:35:29;93363.13;;;1.82;100.00
52105;BME280;38103;42.776;23.112;2023-02-04T11:37:55;93386.66;;;2.03;100.00
52105;BME280;38103;42.776;23.112;2023-02-04T11:40:34;93383.25;;;2.02;100.00
52105;BME280;38103;42.776;23.112;2023-02-04T11:45:31;93377.88;;;2.10;100.00
52105;BME280;38103;42.776;23.112;2023-02-04T11:47:59;93378.09;;;2.16;100.00
52105;BME280;38103;42.776;23.112;2023-02-04T11:50:29;93372.06;;;2.22;100.00
52105;BME280;38103;42.776;23.112;2023-02-04T11:52:56;93368.47;;;2.23;100.00
52105;BME280;38103;42.776;23.112;2023-02-04T11:55:22;93360.47;;;2.31;100.00
52105;BME280;38103;42.776;23.112;2023-02-04T11:57:53;93363.25;;;2.30;100.00
52105;BME280;38103;42.776;23.112;2023-02-04T12:00:29;93358.03;;;2.30;100.00
52105;BME280;38103;42.776;23.112;2023-02-04T12:03:03;93366.88;;;2.36;100.00
52105;BME280;38103;42.776;23.112;2023-02-04T12:05:41;93367.31;;;2.46;100.00
52105;BME280;38103;42.776;23.112;2023-02-04T12:11:05;93362.50;;;2.56;100.00
52105;BME280;38103;42.776;23.112;2023-02-04T12:13:32;93355.66;;;2.55;100.00
52105;BME280;38103;42.776;23.112;2023-02-04T12:15:58;93353.28;;;2.54;100.00
52105;BME280;38103;42.776;23.112;2023-02-04T12:18:24;93353.28;;;2.54;100.00
52105;BME280;38103;42.776;23.112;2023-02-04T12:20:52;93356.09;;;2.66;100.00
52105;BME280;38103;42.776;23.112;2023-02-04T12:23:18;93357.91;;;2.72;100.00
52105;BME280;38103;42.776;23.112;2023-02-04T12:25:43;93349.69;;;2.75;100.00
52105;BME280;38103;42.776;23.112;2023-02-04T12:28:09;93342.06;;;2.81;100.00
52105;BME280;38103;42.776;23.112;2023-02-04T12:30:34;93350.69;;;2.88;100.00
52105;BME280;38103;42.776;23.112;2023-02-04T12:33:00;93337.22;;;2.91;100.00
52105;BME280;38103;42.776;23.112;2023-02-04T12:35:26;93338.41;;;2.95;100.00
52105;BME280;38103;42.776;23.112;2023-02-04T12:37:51;93338.81;;;3.06;100.00
52105;BME280;38103;42.776;23.112;2023-02-04T12:40:18;93336.78;;;3.08;100.00
52105;BME280;38103;42.776;23.112;2023-02-04T12:42:44;93337.59;;;3.08;100.00
52105;BME280;38103;42.776;23.112;2023-02-04T12:45:14;93345.63;;;3.07;100.00
52105;BME280;38103;42.776;23.112;2023-02-04T12:47:40;93327.16;;;2.95;100.00
52105;BME280;38103;42.776;23.112;2023-02-04T12:50:06;93350.06;;;2.99;100.00
52105;BME280;38103;42.776;23.112;2023-02-04T12:52:31;93336.41;;;2.97;100.00
52105;BME280;38103;42.776;23.112;2023-02-04T12:54:57;93354.50;;;2.85;100.00
52105;BME280;38103;42.776;23.112;2023-02-04T12:57:24;93350.06;;;2.72;100.00
52105;BME280;38103;42.776;23.112;2023-02-04T12:59:50;93351.50;;;2.68;100.00
52105;BME280;38103;42.776;23.112;2023-02-04T13:02:15;93348.03;;;2.61;100.00